createdAt,value
2019-04-22T00:00:02.872Z,1013.33
2019-04-22T00:01:06.980Z,1013.32
2019-04-22T00:02:07.094Z,1013.27
2019-04-22T00:03:06.821Z,1013.33
2019-04-22T00:04:10.036Z,1013.28
2019-04-22T00:05:15.594Z,1013.29
2019-04-22T00:06:25.955Z,1013.29
2019-04-22T00:07:22.190Z,1013.24
2019-04-22T00:08:30.981Z,1013.25
2019-04-22T00:09:35.965Z,1013.28
2019-04-22T00:11:30.332Z,1013.26
2019-04-22T00:12:27.937Z,1013.22
2019-04-22T00:13:36.410Z,1013.25
2019-04-22T00:14:24.268Z,1013.22
2019-04-22T00:15:21.487Z,1013.21
2019-04-22T00:16:34.314Z,1013.23
2019-04-22T00:17:22.909Z,1013.16
2019-04-22T00:18:36.337Z,1013.13
2019-04-22T00:19:29.141Z,1013.15
2019-04-22T00:20:30.793Z,1013.14
2019-04-22T00:22:22.121Z,1013.10
2019-04-22T00:23:23.437Z,1013.09
2019-04-22T00:24:27.505Z,1013.08
2019-04-22T00:25:32.963Z,1013.12
2019-04-22T00:26:30.921Z,1013.11
2019-04-22T00:28:30.312Z,1013.06
2019-04-22T00:31:26.792Z,1012.95
2019-04-22T00:32:19.456Z,1013.01
2019-04-22T00:33:26.673Z,1013.04
2019-04-22T00:34:22.537Z,1013.04
2019-04-22T00:35:27.261Z,1012.98
2019-04-22T00:36:33.245Z,1013.02
2019-04-22T00:37:28.538Z,1013.00
2019-04-22T00:38:33.819Z,1013.00
2019-04-22T00:39:27.007Z,1013.00
2019-04-22T00:40:31.888Z,1012.95
2019-04-22T00:41:29.835Z,1012.96
2019-04-22T00:42:32.310Z,1012.94
2019-04-22T00:43:24.455Z,1012.98
2019-04-22T00:44:33.293Z,1013.00
2019-04-22T00:45:24.792Z,1013.01
2019-04-22T00:46:31.539Z,1013.02
2019-04-22T00:48:29.075Z,1013.00
2019-04-22T00:50:10.943Z,1012.95
2019-04-22T00:50:30.585Z,1012.93
2019-04-22T00:51:29.050Z,1012.98
2019-04-22T00:52:28.691Z,1012.99
2019-04-22T00:53:30.063Z,1012.96
2019-04-22T00:54:32.918Z,1012.94
2019-04-22T00:55:24.553Z,1012.98
2019-04-22T00:56:18.702Z,1012.91
2019-04-22T00:57:28.058Z,1012.90
2019-04-22T00:58:26.189Z,1012.91
2019-04-22T01:01:23.472Z,1012.88
2019-04-22T01:02:21.533Z,1012.81
2019-04-22T01:03:37.064Z,1012.83
2019-04-22T01:04:35.225Z,1012.82
2019-04-22T01:05:32.477Z,1012.79
2019-04-22T01:06:27.025Z,1012.82
2019-04-22T01:07:17.711Z,1012.80
2019-04-22T01:08:30.237Z,1012.79
2019-04-22T01:09:17.458Z,1012.83
2019-04-22T01:10:40.079Z,1012.75
2019-04-22T01:11:29.913Z,1012.76
2019-04-22T01:12:26.537Z,1012.75
2019-04-22T01:13:26.188Z,1012.72
2019-04-22T01:14:29.409Z,1012.72
2019-04-22T01:15:28.944Z,1012.72
2019-04-22T01:16:28.330Z,1012.77
2019-04-22T01:17:26.533Z,1012.71
2019-04-22T01:18:23.096Z,1012.74
2019-04-22T01:19:36.686Z,1012.72
2019-04-22T01:20:58.845Z,1012.68
2019-04-22T01:21:28.920Z,1012.71
2019-04-22T01:23:23.985Z,1012.73
2019-04-22T01:24:24.666Z,1012.65
2019-04-22T01:25:24.859Z,1012.68
2019-04-22T01:26:21.268Z,1012.68
2019-04-22T01:27:20.635Z,1012.61
2019-04-22T01:28:18.105Z,1012.65
2019-04-22T01:29:17.281Z,1012.62
2019-04-22T01:30:16.465Z,1012.62
2019-04-22T01:31:07.787Z,1012.62
2019-04-22T01:32:05.940Z,1012.56
2019-04-22T01:33:09.142Z,1012.59
2019-04-22T01:34:16.162Z,1012.57
2019-04-22T01:35:18.020Z,1012.53
2019-04-22T01:36:25.937Z,1012.54
2019-04-22T01:37:20.231Z,1012.46
2019-04-22T01:38:18.966Z,1012.51
2019-04-22T01:39:35.945Z,1012.51
2019-04-22T01:40:33.426Z,1012.47
2019-04-22T01:41:37.562Z,1012.44
2019-04-22T01:42:26.379Z,1012.46
2019-04-22T01:43:35.341Z,1012.45
2019-04-22T01:44:33.289Z,1012.45
2019-04-22T01:45:26.483Z,1012.40
2019-04-22T01:46:31.456Z,1012.38
2019-04-22T01:47:31.330Z,1012.45
2019-04-22T01:48:19.698Z,1012.44
2019-04-22T01:49:27.604Z,1012.43
2019-04-22T01:50:26.322Z,1012.37
2019-04-22T01:51:40.639Z,1012.42
2019-04-22T01:53:24.478Z,1012.36
2019-04-22T01:54:35.355Z,1012.33
2019-04-22T01:55:32.422Z,1012.35
2019-04-22T01:56:27.212Z,1012.31
2019-04-22T01:57:22.810Z,1012.32
2019-04-22T01:58:23.884Z,1012.28
2019-04-22T01:59:20.117Z,1012.32
2019-04-22T02:00:32.855Z,1012.25
2019-04-22T02:01:30.855Z,1012.25
2019-04-22T02:02:30.428Z,1012.25
2019-04-22T02:03:33.263Z,1012.21
2019-04-22T02:04:35.418Z,1012.25
2019-04-22T02:05:18.742Z,1012.22
2019-04-22T02:06:30.624Z,1012.16
2019-04-22T02:10:37.030Z,1012.18
2019-04-22T02:11:32.144Z,1012.15
2019-04-22T02:12:29.863Z,1012.22
2019-04-22T02:13:29.007Z,1012.10
2019-04-22T02:14:37.364Z,1012.17
2019-04-22T02:15:46.487Z,1012.12
2019-04-22T02:16:20.075Z,1012.12
2019-04-22T02:17:33.184Z,1012.08
2019-04-22T02:18:31.915Z,1012.09
2019-04-22T02:19:30.450Z,1012.03
2019-04-22T02:21:31.924Z,1012.06
2019-04-22T02:22:41.702Z,1012.07
2019-04-22T02:24:33.915Z,1012.05
2019-04-22T02:26:32.662Z,1012.03
2019-04-22T02:27:37.618Z,1012.06
2019-04-22T02:28:38.478Z,1012.07
2019-04-22T02:29:32.708Z,1012.04
2019-04-22T02:30:46.347Z,1012.03
2019-04-22T02:31:40.958Z,1012.02
2019-04-22T02:33:46.605Z,1012.05
2019-04-22T02:34:21.754Z,1012.07
2019-04-22T02:35:23.761Z,1012.03
2019-04-22T02:36:29.753Z,1012.01
2019-04-22T02:37:29.642Z,1012.03
2019-04-22T02:38:57.419Z,1011.99
2019-04-22T02:39:36.145Z,1012.00
2019-04-22T02:41:27.539Z,1012.03
2019-04-22T02:42:30.023Z,1012.00
2019-04-22T02:43:47.091Z,1011.97
2019-04-22T02:44:22.584Z,1011.99
2019-04-22T02:45:39.538Z,1012.00
2019-04-22T02:46:47.229Z,1012.03
2019-04-22T02:47:33.511Z,1011.99
2019-04-22T02:48:39.997Z,1011.99
2019-04-22T02:49:31.179Z,1011.92
2019-04-22T02:50:30.863Z,1012.00
2019-04-22T02:51:28.147Z,1011.99
2019-04-22T02:52:39.496Z,1011.93
2019-04-22T02:54:12.289Z,1011.92
2019-04-22T02:55:23.622Z,1011.99
2019-04-22T02:56:31.822Z,1011.92
2019-04-22T02:57:35.503Z,1011.91
2019-04-22T02:58:47.019Z,1011.90
2019-04-22T02:59:34.869Z,1011.91
2019-04-22T03:00:49.181Z,1011.89
2019-04-22T03:02:43.165Z,1011.85
2019-04-22T03:03:31.307Z,1011.89
2019-04-22T03:04:18.778Z,1011.87
2019-04-22T03:05:36.491Z,1011.91
2019-04-22T03:07:31.765Z,1011.90
2019-04-22T03:09:35.724Z,1011.88
2019-04-22T03:10:47.350Z,1011.86
2019-04-22T03:11:34.052Z,1011.82
2019-04-22T03:13:34.474Z,1011.80
2019-04-22T03:14:30.192Z,1011.78
2019-04-22T03:15:38.065Z,1011.75
2019-04-22T03:19:47.775Z,1011.71
2019-04-22T03:20:14.491Z,1011.68
2019-04-22T03:21:31.238Z,1011.64
2019-04-22T03:23:36.872Z,1011.63
2019-04-22T03:27:30.126Z,1011.55
2019-04-22T03:28:44.286Z,1011.59
2019-04-22T03:33:44.441Z,1011.55
2019-04-22T03:35:49.769Z,1011.52
2019-04-22T03:37:03.696Z,1011.58
2019-04-22T03:37:43.166Z,1011.58
2019-04-22T03:39:45.957Z,1011.51
2019-04-22T03:40:40.465Z,1011.48
2019-04-22T03:41:48.227Z,1011.47
2019-04-22T03:42:21.319Z,1011.45
2019-04-22T03:43:42.174Z,1011.47
2019-04-22T03:44:38.454Z,1011.46
2019-04-22T03:47:38.656Z,1011.53
2019-04-22T03:48:38.358Z,1011.44
2019-04-22T03:49:30.774Z,1011.46
2019-04-22T03:51:45.747Z,1011.48
2019-04-22T03:52:15.890Z,1011.41
2019-04-22T03:53:24.816Z,1011.40
2019-04-22T03:54:39.533Z,1011.44
2019-04-22T03:55:28.960Z,1011.45
2019-04-22T03:57:07.135Z,1011.38
2019-04-22T03:57:50.093Z,1011.47
2019-04-22T03:58:39.242Z,1011.39
2019-04-22T04:02:41.406Z,1011.38
2019-04-22T04:03:30.485Z,1011.34
2019-04-22T04:11:43.166Z,1011.27
2019-04-22T04:12:38.502Z,1011.27
2019-04-22T04:13:34.048Z,1011.22
2019-04-22T04:14:37.995Z,1011.25
2019-04-22T04:16:41.294Z,1011.28
2019-04-22T04:18:39.564Z,1011.21
2019-04-22T04:22:56.756Z,1011.26
2019-04-22T04:23:31.460Z,1011.27
2019-04-22T04:24:44.219Z,1011.20
2019-04-22T04:27:54.023Z,1011.23
2019-04-22T04:29:51.372Z,1011.17
2019-04-22T04:30:31.509Z,1011.15
2019-04-22T04:33:23.315Z,1011.15
2019-04-22T04:35:40.890Z,1011.17
2019-04-22T04:39:34.893Z,1011.15
2019-04-22T04:40:36.904Z,1011.16
2019-04-22T04:41:30.856Z,1011.15
2019-04-22T04:43:35.095Z,1011.17
2019-04-22T04:44:47.854Z,1011.11
2019-04-22T04:45:31.985Z,1011.15
2019-04-22T04:46:24.401Z,1011.16
2019-04-22T04:48:42.563Z,1011.12
2019-04-22T04:49:37.318Z,1011.14
2019-04-22T04:51:38.184Z,1011.12
2019-04-22T04:53:28.821Z,1011.08
2019-04-22T04:56:29.641Z,1011.11
2019-04-22T04:56:35.907Z,1011.08
2019-04-22T04:59:29.905Z,1011.05
2019-04-22T05:01:25.141Z,1011.04
2019-04-22T05:02:39.991Z,1011.03
2019-04-22T05:03:39.760Z,1011.08
2019-04-22T05:05:36.554Z,1011.07
2019-04-22T05:06:30.805Z,1011.09
2019-04-22T05:07:38.380Z,1011.06
2019-04-22T05:09:26.146Z,1011.01
2019-04-22T05:10:41.171Z,1011.05
2019-04-22T05:11:24.464Z,1011.02
2019-04-22T05:12:45.392Z,1011.02
2019-04-22T05:14:19.190Z,1011.08
2019-04-22T05:15:54.773Z,1011.10
2019-04-22T05:16:35.463Z,1011.09
2019-04-22T05:18:20.700Z,1011.07
2019-04-22T05:21:22.520Z,1011.12
2019-04-22T05:22:20.447Z,1011.12
2019-04-22T05:23:30.435Z,1011.10
2019-04-22T05:25:17.902Z,1011.14
2019-04-22T05:26:22.134Z,1011.05
2019-04-22T05:28:18.876Z,1011.08
2019-04-22T05:29:22.054Z,1011.02
2019-04-22T05:30:26.653Z,1011.00
2019-04-22T05:31:32.299Z,1011.00
2019-04-22T05:32:31.329Z,1011.04
2019-04-22T05:34:19.633Z,1010.94
2019-04-22T05:36:25.898Z,1010.99
2019-04-22T05:38:34.889Z,1011.01
2019-04-22T05:39:22.679Z,1010.95
2019-04-22T05:42:25.377Z,1010.94
2019-04-22T05:44:20.720Z,1010.96
2019-04-22T05:45:24.960Z,1010.93
2019-04-22T05:46:26.233Z,1011.01
2019-04-22T05:47:28.199Z,1010.98
2019-04-22T05:48:29.544Z,1010.93
2019-04-22T05:49:26.172Z,1010.93
2019-04-22T05:54:27.838Z,1010.96
2019-04-22T05:55:22.722Z,1010.96
2019-04-22T05:56:32.744Z,1010.91
2019-04-22T05:57:26.121Z,1010.93
2019-04-22T05:58:32.948Z,1010.90
2019-04-22T05:59:24.775Z,1010.91
2019-04-22T06:00:35.603Z,1010.89
2019-04-22T06:02:30.956Z,1010.87
2019-04-22T06:03:16.549Z,1010.88
2019-04-22T06:04:25.082Z,1010.89
2019-04-22T06:05:16.914Z,1010.89
2019-04-22T06:08:23.269Z,1010.90
2019-04-22T06:09:14.761Z,1010.88
2019-04-22T06:10:27.343Z,1010.94
2019-04-22T06:11:22.850Z,1010.88
2019-04-22T06:12:18.858Z,1010.88
2019-04-22T06:13:17.984Z,1010.85
2019-04-22T06:15:23.489Z,1010.91
2019-04-22T06:16:25.825Z,1010.88
2019-04-22T06:17:19.511Z,1010.83
2019-04-22T06:19:13.766Z,1010.83
2019-04-22T06:20:26.008Z,1010.86
2019-04-22T06:21:31.205Z,1010.82
2019-04-22T06:22:25.378Z,1010.83
2019-04-22T06:23:19.011Z,1010.83
2019-04-22T06:24:29.032Z,1010.81
2019-04-22T06:26:35.736Z,1010.89
2019-04-22T06:27:30.797Z,1010.91
2019-04-22T06:28:38.757Z,1010.89
2019-04-22T06:32:23.935Z,1010.87
2019-04-22T06:33:27.316Z,1010.92
2019-04-22T06:35:29.987Z,1010.91
2019-04-22T06:36:34.465Z,1010.92
2019-04-22T06:37:25.721Z,1010.94
2019-04-22T06:38:30.543Z,1010.88
2019-04-22T06:39:29.467Z,1010.84
2019-04-22T06:40:26.095Z,1010.93
2019-04-22T06:41:25.218Z,1010.91
2019-04-22T06:44:22.713Z,1010.94
2019-04-22T06:45:19.285Z,1010.92
2019-04-22T06:46:27.474Z,1010.90
2019-04-22T06:47:39.994Z,1010.87
2019-04-22T06:48:19.114Z,1010.93
2019-04-22T06:50:31.484Z,1010.91
2019-04-22T06:52:22.045Z,1010.89
2019-04-22T06:53:17.465Z,1010.91
2019-04-22T06:54:22.299Z,1010.92
2019-04-22T06:55:33.285Z,1010.90
2019-04-22T06:56:17.313Z,1010.91
2019-04-22T06:57:25.289Z,1010.94
2019-04-22T06:58:15.212Z,1010.88
2019-04-22T07:00:20.196Z,1010.84
2019-04-22T07:01:35.843Z,1010.87
2019-04-22T07:04:23.322Z,1010.89
2019-04-22T07:06:19.630Z,1010.86
2019-04-22T07:07:22.177Z,1010.85
2019-04-22T07:11:18.954Z,1010.87
2019-04-22T07:12:23.511Z,1010.81
2019-04-22T07:14:16.363Z,1010.88
2019-04-22T07:15:43.108Z,1010.83
2019-04-22T07:16:23.331Z,1010.80
2019-04-22T07:17:15.394Z,1010.83
2019-04-22T07:18:33.768Z,1010.75
2019-04-22T07:19:29.795Z,1010.75
2019-04-22T07:21:23.574Z,1010.77
2019-04-22T07:22:19.870Z,1010.75
2019-04-22T07:24:27.765Z,1010.80
2019-04-22T07:24:28.411Z,1010.83
2019-04-22T07:25:24.980Z,1010.78
2019-04-22T07:26:21.876Z,1010.78
2019-04-22T07:27:18.958Z,1010.79
2019-04-22T07:28:17.637Z,1010.75
2019-04-22T07:29:27.827Z,1010.73
2019-04-22T07:30:27.593Z,1010.73
2019-04-22T07:31:15.785Z,1010.72
2019-04-22T07:32:51.071Z,1010.76
2019-04-22T07:34:31.440Z,1010.77
2019-04-22T07:35:33.613Z,1010.79
2019-04-22T07:36:50.641Z,1010.76
2019-04-22T07:38:26.817Z,1010.71
2019-04-22T07:39:15.580Z,1010.74
2019-04-22T07:40:37.397Z,1010.75
2019-04-22T07:41:27.273Z,1010.76
2019-04-22T07:42:19.324Z,1010.70
2019-04-22T07:44:16.511Z,1010.72
2019-04-22T07:45:23.107Z,1010.75
2019-04-22T07:47:18.918Z,1010.69
2019-04-22T07:48:26.216Z,1010.73
2019-04-22T07:50:37.422Z,1010.65
2019-04-22T07:51:13.291Z,1010.65
2019-04-22T07:52:20.679Z,1010.64
2019-04-22T07:53:24.615Z,1010.68
2019-04-22T07:54:25.825Z,1010.67
2019-04-22T07:55:17.824Z,1010.65
2019-04-22T07:56:20.096Z,1010.69
2019-04-22T07:57:28.399Z,1010.65
2019-04-22T07:58:22.964Z,1010.64
2019-04-22T07:59:30.412Z,1010.64
2019-04-22T08:02:16.333Z,1010.59
2019-04-22T08:03:28.975Z,1010.61
2019-04-22T08:04:35.933Z,1010.57
2019-04-22T08:05:22.473Z,1010.49
2019-04-22T08:06:26.764Z,1010.55
2019-04-22T08:07:30.147Z,1010.53
2019-04-22T08:08:26.375Z,1010.52
2019-04-22T08:09:34.012Z,1010.50
2019-04-22T08:10:35.666Z,1010.48
2019-04-22T08:11:30.986Z,1010.47
2019-04-22T08:12:32.238Z,1010.43
2019-04-22T08:13:25.210Z,1010.46
2019-04-22T08:14:29.774Z,1010.47
2019-04-22T08:15:28.000Z,1010.51
2019-04-22T08:16:23.173Z,1010.45
2019-04-22T08:18:28.886Z,1010.42
2019-04-22T08:21:26.299Z,1010.46
2019-04-22T08:22:24.041Z,1010.46
2019-04-22T08:23:16.670Z,1010.40
2019-04-22T08:24:22.727Z,1010.39
2019-04-22T08:25:26.542Z,1010.46
2019-04-22T08:26:19.330Z,1010.39
2019-04-22T08:27:22.485Z,1010.42
2019-04-22T08:28:30.556Z,1010.39
2019-04-22T08:29:23.172Z,1010.44
2019-04-22T08:30:21.346Z,1010.40
2019-04-22T08:31:28.249Z,1010.44
2019-04-22T08:32:28.498Z,1010.45
2019-04-22T08:33:29.031Z,1010.38
2019-04-22T08:34:23.226Z,1010.43
2019-04-22T08:35:25.307Z,1010.39
2019-04-22T08:36:25.674Z,1010.39
2019-04-22T08:37:49.510Z,1010.37
2019-04-22T08:38:14.671Z,1010.39
2019-04-22T08:40:21.064Z,1010.36
2019-04-22T08:42:27.821Z,1010.31
2019-04-22T08:44:49.630Z,1010.32
2019-04-22T08:45:33.640Z,1010.28
2019-04-22T08:46:35.174Z,1010.35
2019-04-22T08:47:31.149Z,1010.22
2019-04-22T08:48:32.960Z,1010.17
2019-04-22T08:49:16.443Z,1010.22
2019-04-22T08:50:26.930Z,1010.23
2019-04-22T08:52:27.501Z,1010.11
2019-04-22T08:53:35.990Z,1010.15
2019-04-22T08:54:17.942Z,1010.14
2019-04-22T08:55:31.421Z,1010.09
2019-04-22T08:56:33.621Z,1010.08
2019-04-22T08:57:34.725Z,1010.10
2019-04-22T08:58:29.346Z,1010.06
2019-04-22T08:59:22.183Z,1010.07
2019-04-22T09:00:26.408Z,1010.06
2019-04-22T09:01:29.667Z,1010.06
2019-04-22T09:02:25.858Z,1010.01
2019-04-22T09:03:16.022Z,1010.05
2019-04-22T09:04:23.254Z,1010.03
2019-04-22T09:05:42.482Z,1010.01
2019-04-22T09:06:22.440Z,1010.05
2019-04-22T09:07:20.950Z,1010.00
2019-04-22T09:09:28.444Z,1009.99
2019-04-22T09:10:31.092Z,1009.97
2019-04-22T09:11:37.325Z,1009.98
2019-04-22T09:12:25.083Z,1009.93
2019-04-22T09:13:30.006Z,1009.95
2019-04-22T09:14:32.476Z,1009.92
2019-04-22T09:15:31.271Z,1009.91
2019-04-22T09:16:31.819Z,1009.84
2019-04-22T09:17:27.898Z,1009.85
2019-04-22T09:18:28.747Z,1009.78
2019-04-22T09:19:19.667Z,1009.82
2019-04-22T09:20:26.014Z,1009.82
2019-04-22T09:21:34.389Z,1009.76
2019-04-22T09:22:41.127Z,1009.73
2019-04-22T09:23:44.383Z,1009.79
2019-04-22T09:25:43.965Z,1009.70
2019-04-22T09:26:41.864Z,1009.69
2019-04-22T09:27:47.898Z,1009.69
2019-04-22T09:28:44.387Z,1009.64
2019-04-22T09:29:36.764Z,1009.58
2019-04-22T09:30:34.470Z,1009.62
2019-04-22T09:31:44.465Z,1009.61
2019-04-22T09:32:36.337Z,1009.64
2019-04-22T09:33:38.180Z,1009.60
2019-04-22T09:34:39.866Z,1009.59
2019-04-22T09:35:45.063Z,1009.55
2019-04-22T09:36:46.860Z,1009.53
2019-04-22T09:38:41.031Z,1009.52
2019-04-22T09:39:41.027Z,1009.45
2019-04-22T09:41:31.909Z,1009.50
2019-04-22T09:42:45.062Z,1009.44
2019-04-22T09:44:40.401Z,1009.45
2019-04-22T09:46:43.642Z,1009.43
2019-04-22T09:47:55.518Z,1009.46
2019-04-22T09:48:50.161Z,1009.39
2019-04-22T09:49:51.917Z,1009.39
2019-04-22T09:50:47.713Z,1009.37
2019-04-22T09:52:42.127Z,1009.33
2019-04-22T09:53:47.251Z,1009.24
2019-04-22T09:54:36.979Z,1009.24
2019-04-22T09:55:37.058Z,1009.22
2019-04-22T09:56:37.450Z,1009.17
2019-04-22T09:57:41.286Z,1009.16
2019-04-22T09:58:44.726Z,1009.21
2019-04-22T09:59:43.770Z,1009.19
2019-04-22T10:01:07.104Z,1009.17
2019-04-22T10:03:00.874Z,1009.26
2019-04-22T10:06:11.865Z,1009.20
2019-04-22T10:06:54.466Z,1009.14
2019-04-22T10:08:02.425Z,1009.12
2019-04-22T10:09:12.687Z,1009.12
2019-04-22T10:10:03.474Z,1008.98
2019-04-22T10:11:55.916Z,1008.98
2019-04-22T10:12:57.454Z,1009.06
2019-04-22T10:14:53.952Z,1008.93
2019-04-22T10:16:03.042Z,1008.93
2019-04-22T10:16:51.827Z,1008.95
2019-04-22T10:18:00.517Z,1008.98
2019-04-22T10:19:46.817Z,1008.98
2019-04-22T10:21:00.760Z,1008.92
2019-04-22T10:22:00.880Z,1008.77
2019-04-22T10:22:57.756Z,1008.77
2019-04-22T10:23:59.459Z,1008.78
2019-04-22T10:24:56.928Z,1008.83
2019-04-22T10:25:59.111Z,1008.76
2019-04-22T10:29:59.831Z,1008.81
2019-04-22T10:30:52.842Z,1008.67
2019-04-22T10:32:17.776Z,1008.73
2019-04-22T10:33:14.829Z,1008.78
2019-04-22T10:34:13.179Z,1008.69
2019-04-22T10:35:02.414Z,1008.63
2019-04-22T10:35:57.411Z,1008.71
2019-04-22T10:37:02.304Z,1008.60
2019-04-22T10:37:56.814Z,1008.66
2019-04-22T10:38:58.201Z,1008.57
2019-04-22T10:39:59.296Z,1008.60
2019-04-22T10:40:56.793Z,1008.53
2019-04-22T10:41:56.916Z,1008.52
2019-04-22T10:42:57.011Z,1008.51
2019-04-22T10:43:57.044Z,1008.60
2019-04-22T10:44:57.273Z,1008.40
2019-04-22T10:45:57.850Z,1008.41
2019-04-22T10:46:58.064Z,1008.47
2019-04-22T10:47:58.267Z,1008.42
2019-04-22T10:48:57.933Z,1008.31
2019-04-22T10:49:58.205Z,1008.36
2019-04-22T10:50:56.885Z,1008.30
2019-04-22T10:51:58.274Z,1008.29
2019-04-22T10:52:57.420Z,1008.41
2019-04-22T10:53:57.617Z,1008.33
2019-04-22T10:54:56.803Z,1008.40
2019-04-22T10:55:56.830Z,1008.40
2019-04-22T10:56:56.986Z,1008.32
2019-04-22T10:57:56.883Z,1008.37
2019-04-22T10:58:56.812Z,1008.33
2019-04-22T10:59:56.836Z,1008.17
2019-04-22T11:00:58.230Z,1008.35
2019-04-22T11:01:56.802Z,1008.18
2019-04-22T11:03:02.441Z,1008.20
2019-04-22T11:04:03.353Z,1008.26
2019-04-22T11:05:02.172Z,1008.14
2019-04-22T11:06:03.319Z,1008.10
2019-04-22T11:07:06.912Z,1008.14
2019-04-22T11:08:06.003Z,1008.15
2019-04-22T11:09:04.802Z,1008.14
2019-04-22T11:10:20.486Z,1008.04
2019-04-22T11:11:16.942Z,1008.13
2019-04-22T11:12:09.094Z,1008.08
2019-04-22T11:13:02.987Z,1008.06
2019-04-22T11:14:02.223Z,1008.15
2019-04-22T11:15:03.453Z,1008.05
2019-04-22T11:16:03.518Z,1008.01
2019-04-22T11:17:05.052Z,1007.94
2019-04-22T11:18:02.215Z,1007.98
2019-04-22T11:19:03.486Z,1007.93
2019-04-22T11:20:03.696Z,1008.02
2019-04-22T11:21:02.201Z,1008.04
2019-04-22T11:22:44.706Z,1007.92
2019-04-22T11:23:44.760Z,1007.97
2019-04-22T11:24:44.537Z,1007.93
2019-04-22T11:25:45.929Z,1007.83
2019-04-22T11:26:45.187Z,1007.82
2019-04-22T11:27:44.447Z,1007.74
2019-04-22T11:28:45.495Z,1007.73
2019-04-22T11:29:45.680Z,1007.78
2019-04-22T11:30:44.715Z,1007.80
2019-04-22T11:31:44.564Z,1007.67
2019-04-22T11:32:44.713Z,1007.67
2019-04-22T11:33:44.780Z,1007.69
2019-04-22T11:34:44.942Z,1007.67
2019-04-22T11:35:45.769Z,1007.65
2019-04-22T11:36:45.047Z,1007.60
2019-04-22T11:37:44.318Z,1007.61
2019-04-22T11:38:49.043Z,1007.70
2019-04-22T11:39:44.845Z,1007.70
2019-04-22T11:40:47.935Z,1007.64
2019-04-22T11:41:44.433Z,1007.66
2019-04-22T11:42:44.323Z,1007.65
2019-04-22T11:43:45.174Z,1007.53
2019-04-22T11:44:45.406Z,1007.54
2019-04-22T11:45:45.055Z,1007.49
2019-04-22T11:46:45.282Z,1007.47
2019-04-22T11:47:45.431Z,1007.50
2019-04-22T11:48:45.576Z,1007.50
2019-04-22T11:49:45.770Z,1007.48
2019-04-22T11:50:44.351Z,1007.53
2019-04-22T11:51:45.575Z,1007.53
2019-04-22T11:52:44.737Z,1007.53
2019-04-22T11:53:45.110Z,1007.40
2019-04-22T11:54:44.373Z,1007.46
2019-04-22T11:55:44.776Z,1007.35
2019-04-22T11:56:45.285Z,1007.34
2019-04-22T11:57:44.814Z,1007.30
2019-04-22T11:58:44.570Z,1007.38
2019-04-22T11:59:45.026Z,1007.35
2019-04-22T12:00:45.101Z,1007.30
2019-04-22T12:01:44.677Z,1007.43
2019-04-22T12:02:44.910Z,1007.42
2019-04-22T12:03:44.302Z,1007.42
2019-04-22T12:04:45.538Z,1007.39
2019-04-22T12:05:45.831Z,1007.35
2019-04-22T12:06:44.377Z,1007.40
2019-04-22T12:07:44.683Z,1007.27
2019-04-22T12:08:45.797Z,1007.25
2019-04-22T12:09:45.756Z,1007.29
2019-04-22T12:10:51.582Z,1007.24
2019-04-22T12:11:44.476Z,1007.20
2019-04-22T12:12:46.605Z,1007.30
2019-04-22T12:13:44.354Z,1007.16
2019-04-22T12:14:45.776Z,1007.17
2019-04-22T12:15:44.941Z,1007.13
2019-04-22T12:16:45.534Z,1007.16
2019-04-22T12:17:44.508Z,1007.18
2019-04-22T12:18:44.952Z,1007.06
2019-04-22T12:19:44.332Z,1007.13
2019-04-22T12:20:45.399Z,1007.11
2019-04-22T12:21:44.790Z,1007.08
2019-04-22T12:22:45.027Z,1007.03
2019-04-22T12:23:45.174Z,1007.05
2019-04-22T12:24:44.702Z,1007.02
2019-04-22T12:25:52.503Z,1006.98
2019-04-22T12:26:44.396Z,1007.01
2019-04-22T12:27:45.300Z,1007.00
2019-04-22T12:28:44.753Z,1006.94
2019-04-22T12:29:44.848Z,1006.80
2019-04-22T12:30:45.669Z,1006.87
2019-04-22T12:31:45.238Z,1006.74
2019-04-22T12:32:45.582Z,1006.84
2019-04-22T12:33:45.409Z,1006.89
2019-04-22T12:34:44.374Z,1006.76
2019-04-22T12:35:44.482Z,1006.80
2019-04-22T12:36:44.825Z,1006.77
2019-04-22T12:37:49.584Z,1006.89
2019-04-22T12:38:45.325Z,1006.75
2019-04-22T12:39:45.367Z,1006.77
2019-04-22T12:40:52.509Z,1006.69
2019-04-22T12:41:44.442Z,1006.68
2019-04-22T12:42:45.005Z,1006.65
2019-04-22T12:43:45.060Z,1006.61
2019-04-22T12:44:45.842Z,1006.65
2019-04-22T12:45:44.822Z,1006.69
2019-04-22T12:46:44.394Z,1006.60
2019-04-22T12:47:44.373Z,1006.69
2019-04-22T12:48:45.201Z,1006.62
2019-04-22T12:49:46.922Z,1006.58
2019-04-22T12:50:46.466Z,1006.52
2019-04-22T12:51:45.352Z,1006.47
2019-04-22T12:52:52.727Z,1006.51
2019-04-22T12:53:46.159Z,1006.49
2019-04-22T12:54:44.614Z,1006.52
2019-04-22T12:55:45.919Z,1006.43
2019-04-22T12:56:45.806Z,1006.44
2019-04-22T12:57:44.375Z,1006.47
2019-04-22T12:58:45.803Z,1006.44
2019-04-22T12:59:45.713Z,1006.47
2019-04-22T13:00:44.935Z,1006.53
2019-04-22T13:01:44.705Z,1006.32
2019-04-22T13:02:45.024Z,1006.47
2019-04-22T13:03:44.722Z,1006.37
2019-04-22T13:04:45.908Z,1006.32
2019-04-22T13:05:45.162Z,1006.38
2019-04-22T13:06:45.844Z,1006.29
2019-04-22T13:07:44.406Z,1006.19
2019-04-22T13:08:45.638Z,1006.41
2019-04-22T13:09:45.394Z,1006.29
2019-04-22T13:10:51.362Z,1006.28
2019-04-22T13:11:45.864Z,1006.24
2019-04-22T13:12:44.766Z,1006.22
2019-04-22T13:13:45.134Z,1006.18
2019-04-22T13:14:45.538Z,1006.13
2019-04-22T13:15:44.627Z,1006.28
2019-04-22T13:16:44.913Z,1006.11
2019-04-22T13:17:44.456Z,1006.09
2019-04-22T13:18:50.203Z,1006.14
2019-04-22T13:19:44.537Z,1006.07
2019-04-22T13:20:44.525Z,1006.03
2019-04-22T13:21:44.841Z,1006.08
2019-04-22T13:22:45.030Z,1006.02
2019-04-22T13:23:44.607Z,1006.01
2019-04-22T13:24:45.789Z,1005.93
2019-04-22T13:25:44.899Z,1005.89
2019-04-22T13:26:45.245Z,1005.91
2019-04-22T13:27:44.900Z,1005.96
2019-04-22T13:28:45.111Z,1005.88
2019-04-22T13:29:46.556Z,1005.90
2019-04-22T13:30:44.461Z,1005.94
2019-04-22T13:31:44.844Z,1005.88
2019-04-22T13:32:44.850Z,1005.94
2019-04-22T13:33:44.434Z,1005.88
2019-04-22T13:34:48.089Z,1005.84
2019-04-22T13:35:45.717Z,1005.81
2019-04-22T13:36:46.612Z,1005.80
2019-04-22T13:37:44.447Z,1005.86
2019-04-22T13:38:45.016Z,1005.90
2019-04-22T13:39:45.052Z,1005.83
2019-04-22T13:41:00.927Z,1005.95
2019-04-22T13:41:49.815Z,1005.89
2019-04-22T13:42:44.890Z,1005.83
2019-04-22T13:43:45.010Z,1005.90
2019-04-22T13:44:46.044Z,1005.90
2019-04-22T13:45:45.689Z,1005.84
2019-04-22T13:47:02.158Z,1005.84
2019-04-22T13:48:03.008Z,1005.75
2019-04-22T13:49:08.751Z,1005.72
2019-04-22T13:50:17.652Z,1005.77
2019-04-22T13:52:18.847Z,1005.82
2019-04-22T13:55:08.181Z,1005.59
2019-04-22T13:56:05.559Z,1005.61
2019-04-22T13:56:56.875Z,1005.62
2019-04-22T13:57:57.412Z,1005.55
2019-04-22T13:58:57.741Z,1005.57
2019-04-22T13:59:46.927Z,1005.57
2019-04-22T14:00:44.817Z,1005.53
2019-04-22T14:01:44.466Z,1005.57
2019-04-22T14:02:44.685Z,1005.55
2019-04-22T14:03:44.804Z,1005.67
2019-04-22T14:04:44.429Z,1005.55
2019-04-22T14:05:44.890Z,1005.59
2019-04-22T14:06:44.879Z,1005.45
2019-04-22T14:07:44.481Z,1005.39
2019-04-22T14:08:45.185Z,1005.48
2019-04-22T14:09:44.558Z,1005.44
2019-04-22T14:10:44.752Z,1005.59
2019-04-22T14:11:50.527Z,1005.56
2019-04-22T14:12:44.711Z,1005.46
2019-04-22T14:13:45.971Z,1005.44
2019-04-22T14:14:45.690Z,1005.44
2019-04-22T14:15:44.473Z,1005.38
2019-04-22T14:16:44.880Z,1005.35
2019-04-22T14:17:45.361Z,1005.35
2019-04-22T14:18:46.061Z,1005.18
2019-04-22T14:19:44.739Z,1005.29
2019-04-22T14:20:44.967Z,1005.33
2019-04-22T14:21:47.263Z,1005.27
2019-04-22T14:22:44.533Z,1005.34
2019-04-22T14:23:44.792Z,1005.32
2019-04-22T14:24:44.944Z,1005.34
2019-04-22T14:25:44.456Z,1005.28
2019-04-22T14:27:51.133Z,1005.26
2019-04-22T14:28:45.933Z,1005.16
2019-04-22T14:29:44.589Z,1005.18
2019-04-22T14:30:44.590Z,1005.13
2019-04-22T14:31:44.702Z,1005.15
2019-04-22T14:32:45.775Z,1005.09